createdAt,value
2023-04-20T00:00:49.756Z,0.00
2023-04-20T00:01:49.766Z,0.00
2023-04-20T00:02:50.017Z,0.00
2023-04-20T00:03:50.164Z,0.00
2023-04-20T00:04:50.176Z,0.00
2023-04-20T00:05:50.236Z,0.00
2023-04-20T00:06:50.383Z,0.00
2023-04-20T00:07:50.471Z,0.00
2023-04-20T00:08:50.593Z,0.00
2023-04-20T00:09:50.690Z,0.00
2023-04-20T00:10:50.844Z,0.00
2023-04-20T00:11:50.934Z,0.00
2023-04-20T00:12:51.133Z,0.00
2023-04-20T00:13:51.238Z,0.00
2023-04-20T00:14:51.391Z,0.00
2023-04-20T00:15:51.509Z,0.00
2023-04-20T00:16:51.685Z,0.00
2023-04-20T00:17:51.803Z,0.00
2023-04-20T00:18:51.865Z,0.00
2023-04-20T00:19:52.049Z,0.00
2023-04-20T00:20:52.231Z,0.00
2023-04-20T00:21:52.281Z,0.00
2023-04-20T00:22:52.370Z,0.00
2023-04-20T00:23:52.535Z,0.00
2023-04-20T00:24:52.659Z,0.00
2023-04-20T00:25:52.737Z,0.00
2023-04-20T00:26:52.885Z,0.00
2023-04-20T00:27:53.028Z,0.00
2023-04-20T00:28:53.217Z,0.00
2023-04-20T00:29:53.335Z,0.00
2023-04-20T00:30:53.539Z,0.00
2023-04-20T00:31:53.578Z,0.00
2023-04-20T00:32:53.759Z,0.00
2023-04-20T00:33:53.893Z,0.00
2023-04-20T00:34:53.937Z,0.00
2023-04-20T00:35:54.080Z,0.00
2023-04-20T00:36:54.237Z,0.00
2023-04-20T00:37:54.376Z,0.00
2023-04-20T00:38:54.496Z,0.00
2023-04-20T00:39:54.627Z,0.00
2023-04-20T00:40:54.820Z,0.00
2023-04-20T00:41:54.864Z,0.00
2023-04-20T00:42:54.966Z,0.00
2023-04-20T00:43:55.045Z,0.00
2023-04-20T00:44:55.399Z,0.00
2023-04-20T00:45:55.414Z,0.00
2023-04-20T00:46:55.478Z,0.00
2023-04-20T00:47:55.614Z,0.00
2023-04-20T00:48:55.743Z,0.00
2023-04-20T00:49:55.848Z,0.00
2023-04-20T00:50:55.915Z,0.00
2023-04-20T00:51:56.079Z,0.00
2023-04-20T00:52:56.230Z,0.00
2023-04-20T00:53:56.337Z,0.00
2023-04-20T00:54:56.499Z,0.00
2023-04-20T00:55:56.625Z,0.00
2023-04-20T00:56:56.693Z,0.00
2023-04-20T00:57:56.771Z,0.00
2023-04-20T00:58:56.919Z,0.00
2023-04-20T00:59:57.063Z,0.00
2023-04-20T01:00:57.327Z,0.00
2023-04-20T01:01:57.436Z,0.00
2023-04-20T01:02:57.544Z,0.00
2023-04-20T01:03:57.619Z,0.00
2023-04-20T01:04:57.677Z,0.00
2023-04-20T01:05:57.846Z,0.00
2023-04-20T01:06:57.941Z,0.00
2023-04-20T01:07:58.036Z,0.00
2023-04-20T01:08:58.184Z,0.00
2023-04-20T01:09:58.285Z,0.00
2023-04-20T01:10:58.443Z,0.00
2023-04-20T01:11:58.540Z,0.00
2023-04-20T01:12:58.674Z,0.00
2023-04-20T01:13:58.812Z,0.00
2023-04-20T01:14:58.998Z,0.00
2023-04-20T01:15:59.145Z,0.00
2023-04-20T01:16:59.197Z,0.00
2023-04-20T01:17:59.352Z,0.00
2023-04-20T01:18:59.504Z,0.00
2023-04-20T01:19:59.588Z,0.00
2023-04-20T01:20:59.829Z,0.00
2023-04-20T01:21:59.822Z,0.00
2023-04-20T01:23:00.024Z,0.00
2023-04-20T01:24:00.112Z,0.00
2023-04-20T01:25:00.216Z,0.00
2023-04-20T01:26:00.396Z,0.00
2023-04-20T01:27:00.440Z,0.00
2023-04-20T01:28:00.553Z,0.00
2023-04-20T01:29:00.677Z,0.00
2023-04-20T01:30:00.842Z,0.00
2023-04-20T01:31:00.984Z,0.00
2023-04-20T01:32:01.068Z,0.00
2023-04-20T01:33:01.217Z,0.00
2023-04-20T01:34:01.347Z,0.00
2023-04-20T01:35:01.456Z,0.00
2023-04-20T01:36:01.646Z,0.00
2023-04-20T01:37:01.766Z,0.00
2023-04-20T01:38:01.885Z,0.00
2023-04-20T01:39:02.029Z,0.00
2023-04-20T01:40:02.097Z,0.00
2023-04-20T01:41:02.315Z,0.00
2023-04-20T01:42:02.335Z,0.00
2023-04-20T01:43:02.440Z,0.00
2023-04-20T01:44:02.562Z,0.00
2023-04-20T01:45:02.690Z,0.00
2023-04-20T01:46:02.803Z,0.00
2023-04-20T01:47:03.013Z,0.00
2023-04-20T01:48:03.204Z,0.00
2023-04-20T01:49:03.220Z,0.00
2023-04-20T01:50:03.388Z,0.00
2023-04-20T01:51:03.550Z,0.00
2023-04-20T01:52:03.680Z,0.00
2023-04-20T01:53:03.793Z,0.00
2023-04-20T01:54:03.910Z,0.00
2023-04-20T01:55:04.009Z,0.00
2023-04-20T01:56:04.150Z,0.00
2023-04-20T01:57:04.226Z,0.00
2023-04-20T01:58:04.376Z,0.00
2023-04-20T01:59:04.524Z,0.00
2023-04-20T02:00:04.655Z,0.00
2023-04-20T02:01:04.820Z,0.00
2023-04-20T02:02:04.939Z,0.00
2023-04-20T02:03:05.076Z,0.00
2023-04-20T02:04:05.111Z,0.00
2023-04-20T02:05:05.219Z,0.00
2023-04-20T02:06:05.399Z,0.00
2023-04-20T02:07:05.467Z,0.00
2023-04-20T02:08:05.613Z,0.00
2023-04-20T02:09:05.934Z,0.00
2023-04-20T02:10:05.820Z,0.00
2023-04-20T02:11:06.000Z,0.00
2023-04-20T02:12:06.035Z,0.00
2023-04-20T02:13:06.233Z,0.00
2023-04-20T02:14:06.318Z,0.00
2023-04-20T02:15:06.420Z,0.00
2023-04-20T02:16:06.505Z,0.00
2023-04-20T02:17:06.692Z,0.00
2023-04-20T02:18:06.880Z,0.00
2023-04-20T02:19:06.917Z,0.00
2023-04-20T02:20:07.079Z,0.00
2023-04-20T02:21:07.273Z,0.00
2023-04-20T02:22:07.322Z,0.00
2023-04-20T02:23:07.470Z,0.00
2023-04-20T02:24:07.654Z,0.00
2023-04-20T02:25:07.777Z,0.00
2023-04-20T02:26:07.873Z,0.00
2023-04-20T02:27:07.984Z,0.00
2023-04-20T02:28:08.092Z,0.00
2023-04-20T02:29:08.233Z,0.00
2023-04-20T02:30:08.379Z,0.00
2023-04-20T02:31:08.526Z,0.00
2023-04-20T02:32:08.599Z,0.00
2023-04-20T02:33:08.752Z,0.00
2023-04-20T02:34:08.851Z,0.00
2023-04-20T02:35:09.030Z,0.00
2023-04-20T02:36:09.105Z,0.00
2023-04-20T02:37:09.230Z,0.00
2023-04-20T02:38:09.388Z,0.00
2023-04-20T02:39:09.474Z,0.00
2023-04-20T02:40:09.667Z,0.00
2023-04-20T02:41:11.327Z,0.00
2023-04-20T02:42:09.876Z,0.00
2023-04-20T02:43:10.046Z,0.00
2023-04-20T02:44:10.173Z,0.00
2023-04-20T02:45:10.318Z,0.00
2023-04-20T02:46:10.455Z,0.00
2023-04-20T02:47:10.596Z,0.00
2023-04-20T02:48:10.708Z,0.00
2023-04-20T02:49:10.814Z,0.00
2023-04-20T02:50:10.914Z,0.00
2023-04-20T02:51:11.029Z,0.00
2023-04-20T02:52:11.144Z,0.00
2023-04-20T02:53:11.293Z,0.00
2023-04-20T02:54:11.388Z,0.00
2023-04-20T02:55:11.555Z,0.00
2023-04-20T02:56:12.207Z,0.00
2023-04-20T02:57:11.820Z,0.00
2023-04-20T02:58:11.921Z,0.00
2023-04-20T02:59:12.044Z,0.00
2023-04-20T03:00:12.133Z,0.00
2023-04-20T03:01:12.370Z,0.00
2023-04-20T03:02:12.439Z,0.00
2023-04-20T03:03:12.632Z,0.00
2023-04-20T03:04:12.729Z,0.00
2023-04-20T03:05:12.764Z,0.00
2023-04-20T03:06:12.871Z,0.00
2023-04-20T03:07:14.686Z,0.00
2023-04-20T03:08:13.110Z,0.00
2023-04-20T03:09:13.268Z,0.00
2023-04-20T03:10:13.364Z,0.00
2023-04-20T03:11:13.456Z,0.00
2023-04-20T03:12:13.597Z,0.00
2023-04-20T03:13:13.706Z,0.00
2023-04-20T03:14:13.796Z,0.00
2023-04-20T03:15:13.896Z,0.00
2023-04-20T03:16:14.047Z,0.00
2023-04-20T03:17:14.218Z,0.00
2023-04-20T03:18:14.202Z,0.00
2023-04-20T03:19:14.299Z,0.00
2023-04-20T03:20:14.406Z,0.00
2023-04-20T03:21:14.655Z,0.00
2023-04-20T03:22:14.646Z,0.00
2023-04-20T03:23:14.743Z,0.00
2023-04-20T03:24:14.873Z,0.00
2023-04-20T03:25:14.964Z,0.00
2023-04-20T03:26:15.094Z,0.00
2023-04-20T03:27:15.267Z,0.00
2023-04-20T03:28:15.418Z,0.00
2023-04-20T03:29:15.758Z,0.00
2023-04-20T03:30:15.580Z,0.00
2023-04-20T03:31:15.717Z,0.00
2023-04-20T03:32:15.838Z,0.00
2023-04-20T03:33:16.062Z,0.00
2023-04-20T03:34:16.138Z,0.00
2023-04-20T03:35:16.225Z,0.00
2023-04-20T03:36:16.369Z,0.00
2023-04-20T03:37:16.472Z,0.00
2023-04-20T03:38:16.638Z,0.00
2023-04-20T03:39:17.064Z,0.00
2023-04-20T03:40:16.853Z,0.00
2023-04-20T03:41:17.022Z,0.00
2023-04-20T03:42:17.130Z,0.00
2023-04-20T03:43:17.269Z,0.00
2023-04-20T03:44:17.374Z,0.00
2023-04-20T03:45:17.474Z,0.00
2023-04-20T03:46:17.615Z,0.00
2023-04-20T03:47:17.790Z,0.00
2023-04-20T03:48:17.926Z,0.00
2023-04-20T03:49:18.173Z,0.00
2023-04-20T03:50:18.102Z,0.00
2023-04-20T03:51:18.228Z,0.00
2023-04-20T03:52:18.367Z,0.00
2023-04-20T03:53:18.571Z,0.00
2023-04-20T03:54:18.623Z,0.00
2023-04-20T03:55:18.827Z,0.00
2023-04-20T03:56:18.932Z,0.00
2023-04-20T03:57:18.989Z,0.00
2023-04-20T03:58:19.121Z,0.00
2023-04-20T03:59:19.373Z,0.00
2023-04-20T04:00:19.340Z,0.00
2023-04-20T04:01:19.534Z,0.00
2023-04-20T04:02:19.608Z,0.00
2023-04-20T04:03:19.899Z,0.00
2023-04-20T04:04:20.072Z,0.00
2023-04-20T04:05:20.027Z,0.00
2023-04-20T04:06:20.140Z,0.00
2023-04-20T04:07:20.243Z,0.00
2023-04-20T04:08:20.358Z,0.00
2023-04-20T04:09:20.537Z,0.00
2023-04-20T04:10:20.582Z,0.00
2023-04-20T04:11:20.687Z,0.00
2023-04-20T04:12:20.780Z,0.00
2023-04-20T04:13:20.892Z,0.00
2023-04-20T04:14:21.080Z,0.00
2023-04-20T04:15:21.175Z,0.00
2023-04-20T04:16:21.364Z,0.00
2023-04-20T04:17:21.407Z,0.00
2023-04-20T04:18:21.488Z,0.00
2023-04-20T04:19:21.688Z,0.00
2023-04-20T04:20:21.782Z,0.00
2023-04-20T04:21:21.950Z,0.00
2023-04-20T04:22:22.059Z,0.00
2023-04-20T04:23:22.156Z,0.00
2023-04-20T04:24:22.239Z,0.00
2023-04-20T04:25:22.387Z,0.00
2023-04-20T04:26:22.510Z,0.00
2023-04-20T04:27:22.608Z,0.00
2023-04-20T04:28:22.702Z,0.00
2023-04-20T04:29:22.889Z,0.00
2023-04-20T04:30:23.018Z,0.00
2023-04-20T04:31:23.145Z,0.00
2023-04-20T04:32:23.256Z,0.00
2023-04-20T04:33:23.366Z,0.00
2023-04-20T04:34:27.040Z,0.00
2023-04-20T04:35:23.618Z,0.00
2023-04-20T04:36:23.744Z,5.62
2023-04-20T04:37:23.854Z,5.62
2023-04-20T04:38:24.010Z,5.62
2023-04-20T04:39:24.126Z,5.62
2023-04-20T04:40:24.222Z,5.62
2023-04-20T04:41:24.416Z,5.62
2023-04-20T04:42:24.722Z,5.62
2023-04-20T04:43:24.627Z,5.62
2023-04-20T04:44:24.794Z,5.62
2023-04-20T04:45:24.856Z,5.62
2023-04-20T04:46:25.563Z,11.25
2023-04-20T04:47:25.173Z,11.25
2023-04-20T04:48:25.203Z,11.25
2023-04-20T04:49:25.293Z,16.88
2023-04-20T04:50:25.492Z,16.88
2023-04-20T04:51:25.589Z,22.50
2023-04-20T04:52:25.721Z,22.50
2023-04-20T04:53:25.832Z,22.50
2023-04-20T04:54:25.923Z,22.50
2023-04-20T04:55:26.222Z,22.50
2023-04-20T04:56:26.216Z,16.88
2023-04-20T04:57:26.336Z,16.88
2023-04-20T04:58:26.431Z,16.88
2023-04-20T04:59:26.611Z,16.88
2023-04-20T05:00:26.727Z,16.88
2023-04-20T05:01:26.932Z,16.88
2023-04-20T05:02:27.082Z,22.50
2023-04-20T05:03:27.336Z,22.50
2023-04-20T05:04:27.364Z,22.50
2023-04-20T05:05:27.351Z,22.50
2023-04-20T05:06:27.508Z,22.50
2023-04-20T05:07:27.597Z,22.50
2023-04-20T05:08:27.787Z,22.50
2023-04-20T05:09:27.883Z,22.50
2023-04-20T05:10:28.060Z,22.50
2023-04-20T05:11:28.152Z,22.50
2023-04-20T05:12:28.284Z,22.50
2023-04-20T05:13:28.460Z,22.50
2023-04-20T05:14:28.523Z,22.50
2023-04-20T05:15:28.615Z,22.50
2023-04-20T05:16:28.984Z,22.50
2023-04-20T05:17:28.850Z,28.12
2023-04-20T05:18:28.933Z,28.12
2023-04-20T05:19:29.052Z,28.12
2023-04-20T05:20:29.163Z,28.12
2023-04-20T05:21:29.285Z,28.12
2023-04-20T05:22:29.343Z,28.12
2023-04-20T05:23:29.497Z,33.75
2023-04-20T05:24:33.231Z,39.38
2023-04-20T05:25:29.717Z,39.38
2023-04-20T05:26:29.851Z,33.75
2023-04-20T05:27:30.035Z,28.12
2023-04-20T05:28:30.128Z,22.50
2023-04-20T05:29:30.281Z,22.50
2023-04-20T05:30:30.428Z,22.50
2023-04-20T05:31:30.549Z,22.50
2023-04-20T05:32:30.717Z,22.50
2023-04-20T05:33:30.880Z,22.50
2023-04-20T05:34:30.955Z,28.12
2023-04-20T05:35:31.116Z,33.75
2023-04-20T05:36:31.201Z,33.75
2023-04-20T05:37:31.330Z,28.12
2023-04-20T05:38:31.529Z,28.12
2023-04-20T05:39:31.595Z,33.75
2023-04-20T05:40:31.737Z,39.38
2023-04-20T05:41:31.961Z,39.38
2023-04-20T05:42:32.009Z,39.38
2023-04-20T05:43:32.129Z,39.38
2023-04-20T05:44:32.305Z,56.25
2023-04-20T05:45:32.383Z,73.12
2023-04-20T05:46:32.489Z,73.12
2023-04-20T05:47:32.648Z,67.50
2023-04-20T05:48:32.769Z,61.88
2023-04-20T05:49:32.932Z,50.62
2023-04-20T05:50:33.058Z,50.62
2023-04-20T05:51:33.162Z,56.25
2023-04-20T05:52:33.341Z,61.88
2023-04-20T05:53:33.458Z,67.50
2023-04-20T05:54:33.560Z,73.12
2023-04-20T05:55:33.736Z,84.38
2023-04-20T05:56:33.839Z,90.00
2023-04-20T05:57:33.979Z,78.75
2023-04-20T05:58:34.132Z,61.88
2023-04-20T05:59:34.269Z,50.62
2023-04-20T06:00:34.380Z,39.38
2023-04-20T06:01:34.561Z,33.75
2023-04-20T06:02:34.755Z,28.12
2023-04-20T06:03:35.025Z,28.12
2023-04-20T06:04:35.191Z,28.12
2023-04-20T06:05:35.171Z,28.12
2023-04-20T06:06:35.156Z,28.12
2023-04-20T06:07:35.349Z,28.12
2023-04-20T06:08:35.474Z,33.75
2023-04-20T06:09:35.556Z,33.75
2023-04-20T06:10:35.718Z,39.38
2023-04-20T06:11:35.823Z,45.00
2023-04-20T06:12:35.980Z,50.62
2023-04-20T06:13:36.144Z,56.25
2023-04-20T06:14:36.246Z,56.25
2023-04-20T06:15:36.447Z,50.62
2023-04-20T06:16:36.530Z,50.62
2023-04-20T06:17:36.694Z,50.62
2023-04-20T06:18:36.807Z,45.00
2023-04-20T06:19:36.922Z,45.00
2023-04-20T06:20:37.050Z,39.38
2023-04-20T06:21:37.286Z,39.38
2023-04-20T06:22:37.324Z,33.75
2023-04-20T06:23:37.481Z,33.75
2023-04-20T06:24:37.658Z,39.38
2023-04-20T06:25:37.706Z,45.00
2023-04-20T06:26:37.849Z,50.62
2023-04-20T06:27:37.990Z,56.25
2023-04-20T06:28:38.193Z,56.25
2023-04-20T06:29:38.246Z,56.25
2023-04-20T06:30:38.338Z,61.88
2023-04-20T06:31:38.513Z,78.75
2023-04-20T06:32:38.648Z,84.38
2023-04-20T06:33:38.777Z,78.75
2023-04-20T06:34:38.854Z,84.38
2023-04-20T06:35:38.984Z,78.75
2023-04-20T06:36:39.126Z,73.12
2023-04-20T06:37:39.280Z,67.50
2023-04-20T06:38:39.407Z,61.88
2023-04-20T06:39:39.529Z,61.88
2023-04-20T06:40:39.634Z,61.88
2023-04-20T06:41:39.877Z,67.50
2023-04-20T06:42:39.903Z,73.12
2023-04-20T06:43:40.048Z,78.75
2023-04-20T06:44:40.290Z,84.38
2023-04-20T06:45:40.324Z,84.38
2023-04-20T06:46:40.536Z,90.00
2023-04-20T06:47:40.677Z,95.62
2023-04-20T06:48:40.730Z,106.88
2023-04-20T06:49:40.869Z,106.88
2023-04-20T06:50:41.008Z,90.00
2023-04-20T06:51:41.244Z,84.38
2023-04-20T06:52:41.286Z,90.00
2023-04-20T06:53:41.426Z,101.25
2023-04-20T06:54:41.671Z,101.25
2023-04-20T06:55:41.705Z,101.25
2023-04-20T06:56:41.839Z,112.50
2023-04-20T06:57:42.005Z,123.75
2023-04-20T06:58:42.086Z,129.38
2023-04-20T06:59:42.234Z,123.75
2023-04-20T07:00:42.346Z,101.25
2023-04-20T07:01:42.594Z,84.38
2023-04-20T07:02:42.801Z,90.00
2023-04-20T07:03:42.896Z,90.00
2023-04-20T07:04:42.996Z,90.00
2023-04-20T07:05:43.014Z,90.00
2023-04-20T07:06:43.114Z,90.00
2023-04-20T07:07:43.303Z,90.00
2023-04-20T07:08:43.390Z,106.88
2023-04-20T07:09:43.535Z,106.88
2023-04-20T07:10:43.737Z,112.50
2023-04-20T07:11:43.861Z,118.12
2023-04-20T07:12:44.249Z,118.12
2023-04-20T07:13:44.160Z,123.75
2023-04-20T07:14:44.213Z,135.00
2023-04-20T07:15:44.378Z,146.25
2023-04-20T07:16:44.882Z,168.75
2023-04-20T07:17:44.648Z,151.88
2023-04-20T07:18:44.802Z,135.00
2023-04-20T07:19:44.915Z,140.62
2023-04-20T07:20:45.034Z,135.00
2023-04-20T07:21:45.247Z,123.75
2023-04-20T07:22:45.324Z,123.75
2023-04-20T07:23:45.494Z,129.38
2023-04-20T07:24:45.545Z,106.88
2023-04-20T07:25:45.678Z,95.62
2023-04-20T07:26:45.830Z,90.00
2023-04-20T07:27:46.006Z,112.50
2023-04-20T07:28:46.126Z,118.12
2023-04-20T07:29:46.222Z,106.88
2023-04-20T07:30:46.352Z,118.12
2023-04-20T07:31:46.526Z,129.38
2023-04-20T07:32:46.656Z,118.12
2023-04-20T07:33:46.784Z,112.50
2023-04-20T07:34:46.917Z,118.12
2023-04-20T07:35:47.035Z,140.62
2023-04-20T07:36:47.129Z,168.75
2023-04-20T07:37:47.297Z,185.62
2023-04-20T07:38:47.491Z,180.00
2023-04-20T07:39:47.529Z,163.12
2023-04-20T07:40:47.679Z,140.62
2023-04-20T07:41:47.822Z,129.38
2023-04-20T07:42:47.940Z,129.38
2023-04-20T07:43:48.060Z,135.00
2023-04-20T07:44:48.263Z,123.75
2023-04-20T07:45:48.364Z,118.12
2023-04-20T07:46:48.550Z,123.75
2023-04-20T07:47:48.664Z,146.25
2023-04-20T07:48:48.752Z,157.50
2023-04-20T07:49:48.866Z,135.00
2023-04-20T07:50:49.062Z,106.88
2023-04-20T07:51:49.144Z,101.25
2023-04-20T07:52:49.263Z,106.88
2023-04-20T07:53:49.393Z,118.12
2023-04-20T07:54:49.552Z,112.50
2023-04-20T07:55:50.983Z,112.50
2023-04-20T07:56:49.790Z,106.88
2023-04-20T07:57:49.911Z,112.50
2023-04-20T07:58:50.048Z,112.50
2023-04-20T07:59:50.196Z,106.88
2023-04-20T08:00:50.352Z,106.88
2023-04-20T08:01:50.521Z,106.88
2023-04-20T08:02:50.792Z,106.88
2023-04-20T08:03:50.873Z,112.50
2023-04-20T08:04:51.106Z,106.88
2023-04-20T08:05:51.106Z,101.25
2023-04-20T08:06:51.173Z,101.25
2023-04-20T08:07:51.271Z,106.88
2023-04-20T08:08:51.420Z,118.12
2023-04-20T08:09:51.536Z,123.75
2023-04-20T08:10:51.688Z,140.62
2023-04-20T08:11:51.875Z,163.12
2023-04-20T08:12:52.750Z,202.50
2023-04-20T08:13:52.095Z,236.25
2023-04-20T08:14:52.195Z,241.88
2023-04-20T08:15:52.399Z,213.75
2023-04-20T08:16:52.448Z,191.25
2023-04-20T08:17:52.605Z,180.00
2023-04-20T08:18:52.745Z,174.38
2023-04-20T08:19:52.846Z,174.38
2023-04-20T08:20:52.988Z,191.25
2023-04-20T08:21:53.246Z,208.12
2023-04-20T08:22:53.306Z,225.00
2023-04-20T08:23:53.424Z,230.62
2023-04-20T08:24:53.534Z,213.75
2023-04-20T08:25:53.694Z,202.50
2023-04-20T08:26:53.806Z,180.00
2023-04-20T08:27:53.958Z,168.75
2023-04-20T08:28:54.052Z,151.88
2023-04-20T08:29:54.134Z,135.00
2023-04-20T08:30:54.277Z,135.00
2023-04-20T08:31:54.591Z,146.25
2023-04-20T08:32:54.644Z,129.38
2023-04-20T08:33:54.683Z,123.75
2023-04-20T08:34:54.967Z,123.75
2023-04-20T08:35:54.895Z,118.12
2023-04-20T08:36:55.045Z,168.75
2023-04-20T08:37:55.240Z,196.88
2023-04-20T08:38:55.334Z,174.38
2023-04-20T08:39:55.453Z,174.38
2023-04-20T08:40:55.618Z,286.88
2023-04-20T08:41:55.837Z,286.88
2023-04-20T08:42:55.897Z,264.38
2023-04-20T08:43:55.986Z,241.88
2023-04-20T08:44:56.179Z,174.38
2023-04-20T08:45:56.266Z,118.12
2023-04-20T08:46:56.543Z,78.75
2023-04-20T08:47:56.546Z,73.12
2023-04-20T08:48:56.683Z,163.12
2023-04-20T08:49:56.791Z,157.50
2023-04-20T08:50:56.926Z,163.12
2023-04-20T08:51:57.073Z,180.00
2023-04-20T08:52:57.210Z,157.50
2023-04-20T08:53:57.351Z,140.62
2023-04-20T08:54:58.084Z,106.88
2023-04-20T08:55:58.566Z,112.50
2023-04-20T08:56:57.803Z,95.62
2023-04-20T08:57:57.892Z,106.88
2023-04-20T08:58:58.042Z,112.50
2023-04-20T08:59:58.159Z,106.88
2023-04-20T09:00:58.292Z,106.88
2023-04-20T09:01:58.667Z,106.88
2023-04-20T09:02:58.633Z,112.50
2023-04-20T09:03:58.776Z,129.38
2023-04-20T09:04:58.768Z,135.00
2023-04-20T09:05:58.835Z,118.12
2023-04-20T09:06:58.976Z,112.50
2023-04-20T09:07:59.129Z,95.62
2023-04-20T09:08:59.242Z,106.88
2023-04-20T09:09:59.360Z,123.75
2023-04-20T09:10:59.501Z,123.75
2023-04-20T09:11:59.652Z,112.50
2023-04-20T09:12:59.761Z,112.50
2023-04-20T09:13:59.923Z,118.12
2023-04-20T09:15:00.043Z,101.25
2023-04-20T09:16:00.177Z,101.25
2023-04-20T09:17:00.325Z,112.50
2023-04-20T09:18:00.465Z,118.12
2023-04-20T09:19:00.572Z,123.75
2023-04-20T09:20:00.767Z,90.00
2023-04-20T09:21:00.849Z,84.38
2023-04-20T09:22:01.097Z,78.75
2023-04-20T09:23:01.117Z,78.75
2023-04-20T09:24:01.316Z,84.38
2023-04-20T09:25:01.457Z,78.75
2023-04-20T09:26:01.541Z,78.75
2023-04-20T09:27:01.690Z,84.38
2023-04-20T09:28:01.790Z,90.00
2023-04-20T09:29:01.935Z,101.25
2023-04-20T09:30:02.096Z,95.62
2023-04-20T09:31:02.207Z,112.50
2023-04-20T09:32:03.469Z,118.12
2023-04-20T09:33:02.761Z,101.25
2023-04-20T09:34:02.685Z,95.62
2023-04-20T09:35:02.749Z,95.62
2023-04-20T09:36:02.893Z,101.25
2023-04-20T09:37:03.178Z,101.25
2023-04-20T09:38:03.166Z,112.50
2023-04-20T09:39:03.350Z,112.50
2023-04-20T09:40:03.453Z,95.62
2023-04-20T09:41:03.619Z,90.00
2023-04-20T09:42:03.783Z,61.88
2023-04-20T09:43:03.899Z,61.88
2023-04-20T09:44:03.988Z,78.75
2023-04-20T09:45:04.145Z,129.38
2023-04-20T09:46:04.426Z,146.25
2023-04-20T09:47:04.369Z,163.12
2023-04-20T09:48:04.524Z,185.62
2023-04-20T09:49:04.635Z,219.38
2023-04-20T09:50:19.476Z,253.12
2023-04-20T09:51:05.914Z,281.25
2023-04-20T09:52:05.115Z,298.12
2023-04-20T09:53:05.159Z,326.25
2023-04-20T09:54:05.324Z,365.62
2023-04-20T09:55:05.466Z,421.88
2023-04-20T09:56:05.584Z,483.75
2023-04-20T09:57:05.698Z,568.12
2023-04-20T09:58:05.829Z,691.88
2023-04-20T09:59:05.984Z,759.38
2023-04-20T10:00:06.132Z,714.38
2023-04-20T10:01:06.344Z,646.88
2023-04-20T10:02:06.593Z,534.38
2023-04-20T10:03:06.627Z,450.00
2023-04-20T10:04:06.845Z,399.38
2023-04-20T10:05:06.808Z,360.00
2023-04-20T10:06:06.902Z,320.62
2023-04-20T10:07:06.998Z,292.50
2023-04-20T10:08:07.185Z,298.12
2023-04-20T10:09:07.314Z,286.88
2023-04-20T10:10:07.417Z,331.88
2023-04-20T10:11:07.590Z,354.38
2023-04-20T10:12:07.685Z,264.38
2023-04-20T10:13:07.876Z,202.50
2023-04-20T10:14:07.962Z,174.38
2023-04-20T10:15:08.128Z,168.75
2023-04-20T10:16:08.281Z,185.62
2023-04-20T10:17:08.860Z,196.88
2023-04-20T10:18:08.698Z,208.12
2023-04-20T10:19:09.247Z,320.62
2023-04-20T10:20:08.720Z,393.75
2023-04-20T10:21:08.889Z,438.75
2023-04-20T10:22:09.077Z,472.50
2023-04-20T10:23:09.153Z,433.12
2023-04-20T10:24:09.289Z,365.62
2023-04-20T10:25:09.376Z,264.38
2023-04-20T10:26:09.555Z,281.25
2023-04-20T10:27:09.643Z,410.62
2023-04-20T10:28:09.808Z,416.25
2023-04-20T10:29:09.864Z,421.88
2023-04-20T10:30:10.019Z,348.75
2023-04-20T10:31:10.190Z,253.12
2023-04-20T10:32:10.272Z,247.50
2023-04-20T10:33:10.406Z,292.50
2023-04-20T10:34:10.573Z,371.25
2023-04-20T10:35:10.679Z,382.50
2023-04-20T10:36:10.870Z,410.62
2023-04-20T10:37:10.912Z,433.12
2023-04-20T10:38:11.061Z,421.88
2023-04-20T10:39:11.146Z,455.62
2023-04-20T10:40:11.282Z,540.00
2023-04-20T10:41:11.427Z,450.00
2023-04-20T10:42:11.605Z,444.38
2023-04-20T10:43:11.687Z,410.62
2023-04-20T10:44:11.799Z,433.12
2023-04-20T10:45:11.888Z,382.50
2023-04-20T10:46:12.066Z,315.00
2023-04-20T10:47:12.158Z,286.88
2023-04-20T10:48:12.381Z,281.25
2023-04-20T10:49:12.425Z,298.12
2023-04-20T10:50:12.599Z,253.12
2023-04-20T10:51:12.724Z,174.38
2023-04-20T10:52:12.835Z,129.38
2023-04-20T10:53:12.965Z,112.50
2023-04-20T10:54:13.131Z,95.62
2023-04-20T10:55:13.243Z,84.38
2023-04-20T10:56:13.396Z,84.38
2023-04-20T10:57:13.545Z,95.62
2023-04-20T10:58:13.669Z,146.25
2023-04-20T10:59:13.760Z,348.75
2023-04-20T11:00:13.905Z,624.38
2023-04-20T11:01:14.088Z,832.50
2023-04-20T11:02:14.424Z,995.62
2023-04-20T11:03:14.396Z,1096.88
2023-04-20T11:04:17.022Z,1074.38
2023-04-20T11:05:14.726Z,950.62
2023-04-20T11:06:14.662Z,781.88
2023-04-20T11:07:14.827Z,658.12
2023-04-20T11:08:14.956Z,624.38
2023-04-20T11:09:15.202Z,646.88
2023-04-20T11:10:15.246Z,669.38
2023-04-20T11:11:15.334Z,680.62
2023-04-20T11:12:15.440Z,804.38
2023-04-20T11:13:15.580Z,781.88
2023-04-20T11:14:15.707Z,652.50
2023-04-20T11:15:15.806Z,506.25
2023-04-20T11:16:15.953Z,399.38
2023-04-20T11:17:16.176Z,315.00
2023-04-20T11:18:16.294Z,241.88
2023-04-20T11:19:16.400Z,253.12
2023-04-20T11:20:16.511Z,247.50
2023-04-20T11:21:16.597Z,241.88
2023-04-20T11:22:16.850Z,247.50
2023-04-20T11:23:16.892Z,236.25
2023-04-20T11:24:17.106Z,225.00
2023-04-20T11:25:17.162Z,230.62
2023-04-20T11:26:17.380Z,236.25
2023-04-20T11:27:17.402Z,247.50
2023-04-20T11:28:17.527Z,281.25
2023-04-20T11:29:17.905Z,365.62
2023-04-20T11:30:17.826Z,556.88
2023-04-20T11:31:17.976Z,753.75
2023-04-20T11:32:18.190Z,866.25
2023-04-20T11:33:18.379Z,900.00
2023-04-20T11:34:18.303Z,933.75
2023-04-20T11:35:18.470Z,1732.50
2023-04-20T11:36:18.599Z,798.75
2023-04-20T11:37:18.750Z,3037.50
2023-04-20T11:38:18.835Z,3065.62
2023-04-20T11:39:19.247Z,2902.50
2023-04-20T11:40:19.121Z,2891.25
2023-04-20T11:41:19.204Z,2953.12
2023-04-20T11:42:19.445Z,2896.88
2023-04-20T11:43:19.502Z,2733.75
2023-04-20T11:44:19.626Z,2475.00
2023-04-20T11:45:19.817Z,2548.12
2023-04-20T11:46:19.929Z,2632.50
2023-04-20T11:47:20.149Z,2936.25
2023-04-20T11:48:20.169Z,2998.12
2023-04-20T11:49:20.255Z,2913.75
2023-04-20T11:50:20.412Z,2340.00
2023-04-20T11:51:20.534Z,2643.75
2023-04-20T11:52:20.616Z,2311.88
2023-04-20T11:53:20.803Z,2300.62
2023-04-20T11:54:20.904Z,2733.75
2023-04-20T11:55:21.053Z,2829.38
2023-04-20T11:56:21.179Z,1456.88
2023-04-20T11:57:21.290Z,1552.50
2023-04-20T11:58:21.430Z,956.25
2023-04-20T11:59:21.833Z,1192.50
2023-04-20T12:00:21.652Z,1389.38
2023-04-20T12:01:21.847Z,1496.25
2023-04-20T12:02:22.082Z,883.12
2023-04-20T12:03:22.441Z,720.00
2023-04-20T12:04:22.456Z,579.38
2023-04-20T12:05:22.340Z,461.25
2023-04-20T12:06:22.443Z,393.75
2023-04-20T12:07:22.523Z,365.62
2023-04-20T12:08:22.671Z,393.75
2023-04-20T12:09:22.845Z,399.38
2023-04-20T12:10:22.945Z,421.88
2023-04-20T12:11:23.107Z,489.38
2023-04-20T12:12:23.250Z,781.88
2023-04-20T12:13:23.334Z,1119.38
2023-04-20T12:14:23.484Z,1085.62
2023-04-20T12:15:23.631Z,973.12
2023-04-20T12:16:23.834Z,1029.38
2023-04-20T12:17:23.953Z,838.12
2023-04-20T12:18:24.028Z,725.62
2023-04-20T12:19:24.163Z,624.38
2023-04-20T12:20:24.308Z,556.88
2023-04-20T12:21:24.472Z,562.50
2023-04-20T12:22:24.670Z,607.50
2023-04-20T12:23:24.738Z,686.25
2023-04-20T12:24:24.834Z,787.50
2023-04-20T12:25:24.938Z,866.25
2023-04-20T12:26:34.884Z,928.12
2023-04-20T12:27:26.222Z,956.25
2023-04-20T12:28:25.376Z,1046.25
2023-04-20T12:29:25.535Z,950.62
2023-04-20T12:30:25.593Z,815.62
2023-04-20T12:31:26.581Z,787.50
2023-04-20T12:32:25.861Z,826.88
2023-04-20T12:33:25.957Z,787.50
2023-04-20T12:34:26.167Z,742.50
2023-04-20T12:35:26.229Z,680.62
2023-04-20T12:36:26.431Z,472.50
2023-04-20T12:37:26.498Z,275.62
2023-04-20T12:38:26.658Z,275.62
2023-04-20T12:39:26.763Z,286.88
2023-04-20T12:40:26.876Z,241.88
2023-04-20T12:41:27.033Z,168.75
2023-04-20T12:42:27.235Z,185.62
2023-04-20T12:43:27.323Z,230.62
2023-04-20T12:44:27.462Z,275.62
2023-04-20T12:45:27.572Z,337.50
2023-04-20T12:46:27.738Z,393.75
2023-04-20T12:47:27.820Z,433.12
2023-04-20T12:48:27.959Z,466.88
2023-04-20T12:49:28.098Z,506.25
2023-04-20T12:50:28.215Z,534.38
2023-04-20T12:51:28.404Z,556.88
2023-04-20T12:52:28.508Z,568.12